createdAt,value
2024-01-19T00:01:47.998Z,-2.01
2024-01-19T00:04:14.580Z,-2.09
2024-01-19T00:06:41.164Z,-2.07
2024-01-19T00:09:08.512Z,-2.23
2024-01-19T00:11:35.235Z,-2.32
2024-01-19T00:14:02.006Z,-2.34
2024-01-19T00:16:28.731Z,-2.45
2024-01-19T00:18:55.403Z,-2.53
2024-01-19T00:21:22.100Z,-2.49
2024-01-19T00:23:49.080Z,-2.48
2024-01-19T00:26:15.787Z,-2.50
2024-01-19T00:28:43.037Z,-2.58
2024-01-19T00:31:09.778Z,-2.62
2024-01-19T00:33:36.401Z,-2.89
2024-01-19T00:36:03.206Z,-2.70
2024-01-19T00:38:29.970Z,-2.69
2024-01-19T00:40:56.584Z,-2.65
2024-01-19T00:43:23.201Z,-2.63
2024-01-19T00:45:49.927Z,-2.68
2024-01-19T00:48:16.570Z,-2.74
2024-01-19T00:50:43.284Z,-2.68
2024-01-19T00:53:10.138Z,-2.69
2024-01-19T00:55:36.873Z,-2.54
2024-01-19T00:58:03.478Z,-2.09
2024-01-19T01:00:30.116Z,-1.71
2024-01-19T01:02:58.420Z,-1.40
2024-01-19T01:05:25.285Z,-1.11
2024-01-19T01:07:52.032Z,-0.84
2024-01-19T01:10:19.365Z,-0.62
2024-01-19T01:12:45.982Z,-0.41
2024-01-19T01:15:15.317Z,-0.23
2024-01-19T01:17:42.424Z,-0.05
2024-01-19T01:20:12.094Z,-0.06
2024-01-19T01:22:38.951Z,0.16
2024-01-19T01:25:05.800Z,0.27
2024-01-19T01:27:32.427Z,0.30
2024-01-19T01:29:59.135Z,0.21
2024-01-19T01:32:25.818Z,0.35
2024-01-19T01:34:52.486Z,0.12
2024-01-19T01:37:19.066Z,0.16
2024-01-19T01:39:45.696Z,0.04
2024-01-19T01:42:12.363Z,0.00
2024-01-19T01:44:39.284Z,-0.02
2024-01-19T01:47:05.909Z,-0.16
2024-01-19T01:49:32.661Z,-0.33
2024-01-19T01:51:59.513Z,-0.30
2024-01-19T01:54:26.871Z,-0.31
2024-01-19T01:56:54.460Z,-0.47
2024-01-19T01:59:21.343Z,-0.41
2024-01-19T02:01:48.133Z,-0.51
2024-01-19T02:04:16.568Z,-0.51
2024-01-19T02:06:43.283Z,-0.51
2024-01-19T02:09:10.558Z,-0.47
2024-01-19T02:11:38.511Z,-0.44
2024-01-19T02:14:07.038Z,-0.41
2024-01-19T02:16:34.309Z,-0.36
2024-01-19T02:19:00.995Z,-0.29
2024-01-19T02:21:27.982Z,-0.45
2024-01-19T02:23:56.321Z,-0.23
2024-01-19T02:26:23.639Z,-0.47
2024-01-19T02:28:51.981Z,-0.61
2024-01-19T02:31:18.518Z,-0.60
2024-01-19T02:33:45.137Z,-0.81
2024-01-19T02:36:11.790Z,-0.95
2024-01-19T02:38:38.404Z,-1.13
2024-01-19T02:41:05.129Z,-1.23
2024-01-19T02:43:31.704Z,-1.38
2024-01-19T02:45:58.352Z,-1.55
2024-01-19T02:48:25.177Z,-1.61
2024-01-19T02:50:52.256Z,-1.79
2024-01-19T02:53:19.002Z,-1.83
2024-01-19T02:55:45.613Z,-2.09
2024-01-19T02:58:12.230Z,-1.99
2024-01-19T03:00:38.868Z,-2.04
2024-01-19T03:03:05.709Z,-2.12
2024-01-19T03:05:33.375Z,-2.16
2024-01-19T03:08:00.034Z,-2.26
2024-01-19T03:10:26.579Z,-2.34
2024-01-19T03:12:53.189Z,-2.41
2024-01-19T03:15:19.770Z,-2.47
2024-01-19T03:17:46.589Z,-2.48
2024-01-19T03:20:14.572Z,-2.49
2024-01-19T03:22:41.183Z,-2.58
2024-01-19T03:25:08.128Z,-2.67
2024-01-19T03:27:34.776Z,-2.70
2024-01-19T03:30:01.605Z,-2.67
2024-01-19T03:32:28.454Z,-2.68
2024-01-19T03:34:55.163Z,-2.64
2024-01-19T03:37:21.769Z,-2.64
2024-01-19T03:39:48.377Z,-2.69
2024-01-19T03:42:15.010Z,-2.72
2024-01-19T03:44:42.259Z,-2.54
2024-01-19T03:47:08.927Z,-2.76
2024-01-19T03:49:35.648Z,-2.60
2024-01-19T03:52:05.025Z,-2.56
2024-01-19T03:54:33.680Z,-2.65
2024-01-19T03:57:04.148Z,-2.81
2024-01-19T03:59:30.803Z,-2.79
2024-01-19T04:01:57.458Z,-2.82
2024-01-19T04:04:25.179Z,-2.91
2024-01-19T04:06:53.665Z,-3.02
2024-01-19T04:09:21.024Z,-3.04
2024-01-19T04:11:47.704Z,-2.97
2024-01-19T04:14:14.337Z,-3.10
2024-01-19T04:16:41.221Z,-3.13
2024-01-19T04:19:08.707Z,-3.00
2024-01-19T04:21:35.405Z,-3.15
2024-01-19T04:24:03.187Z,-3.11
2024-01-19T04:26:29.902Z,-3.11
2024-01-19T04:28:56.644Z,-3.11
2024-01-19T04:31:23.535Z,-3.17
2024-01-19T04:33:50.552Z,-3.28
2024-01-19T04:36:18.953Z,-3.42
2024-01-19T04:38:46.478Z,-3.29
2024-01-19T04:41:13.189Z,-3.29
2024-01-19T04:43:39.827Z,-3.35
2024-01-19T04:46:06.439Z,-3.43
2024-01-19T04:48:33.647Z,-3.34
2024-01-19T04:51:00.521Z,-3.41
2024-01-19T04:53:27.150Z,-3.41
2024-01-19T04:55:53.810Z,-3.62
2024-01-19T04:58:20.454Z,-3.51
2024-01-19T05:00:48.918Z,-3.45
2024-01-19T05:03:16.506Z,-3.52
2024-01-19T05:05:43.278Z,-3.52
2024-01-19T05:08:09.892Z,-3.43
2024-01-19T05:10:36.431Z,-3.43
2024-01-19T05:13:04.436Z,-3.45
2024-01-19T05:15:31.016Z,-3.65
2024-01-19T05:17:58.857Z,-3.39
2024-01-19T05:20:25.613Z,-3.39
2024-01-19T05:22:52.527Z,-3.39
2024-01-19T05:25:19.838Z,-3.42
2024-01-19T05:27:46.897Z,-3.33
2024-01-19T05:30:14.948Z,-3.28
2024-01-19T05:32:41.781Z,-3.17
2024-01-19T05:35:09.838Z,-3.05
2024-01-19T05:37:36.517Z,-2.88
2024-01-19T05:40:04.721Z,-2.76
2024-01-19T05:42:31.372Z,-2.50
2024-01-19T05:44:57.999Z,-2.33
2024-01-19T05:47:24.785Z,-1.97
2024-01-19T05:49:51.397Z,-1.53
2024-01-19T05:52:19.553Z,-1.21
2024-01-19T05:54:46.204Z,-0.98
2024-01-19T05:57:12.898Z,-0.67
2024-01-19T05:59:40.885Z,-0.50
2024-01-19T06:02:08.290Z,-0.53
2024-01-19T06:04:38.034Z,-0.35
2024-01-19T06:07:05.172Z,-0.35
2024-01-19T06:09:32.915Z,-0.17
2024-01-19T06:12:00.662Z,-0.13
2024-01-19T06:14:27.310Z,-0.18
2024-01-19T06:16:54.182Z,-0.40
2024-01-19T06:19:20.899Z,-0.36
2024-01-19T06:21:47.785Z,-0.59
2024-01-19T06:24:18.540Z,-0.58
2024-01-19T06:26:49.458Z,-0.71
2024-01-19T06:29:16.524Z,-0.78
2024-01-19T06:31:44.872Z,-0.80
2024-01-19T06:34:12.604Z,-0.99
2024-01-19T06:36:39.475Z,-1.00
2024-01-19T06:39:08.461Z,-0.89
2024-01-19T06:41:35.813Z,-0.96
2024-01-19T06:44:02.624Z,-1.01
2024-01-19T06:46:30.329Z,-0.97
2024-01-19T06:48:57.495Z,-0.89
2024-01-19T06:51:25.659Z,-0.76
2024-01-19T06:53:52.610Z,-0.66
2024-01-19T06:56:19.343Z,-0.57
2024-01-19T06:58:45.940Z,-0.57
2024-01-19T07:01:12.852Z,-0.64
2024-01-19T07:03:39.607Z,-0.69
2024-01-19T07:06:06.587Z,-0.76
2024-01-19T07:08:33.322Z,-0.88
2024-01-19T07:10:59.934Z,-0.95
2024-01-19T07:13:26.571Z,-0.94
2024-01-19T07:15:53.159Z,-1.04
2024-01-19T07:18:19.881Z,-1.08
2024-01-19T07:20:46.833Z,-1.17
2024-01-19T07:23:13.536Z,-1.18
2024-01-19T07:25:40.983Z,-1.28
2024-01-19T07:28:07.599Z,-1.39
2024-01-19T07:30:34.240Z,-1.54
2024-01-19T07:33:06.969Z,-1.57
2024-01-19T07:35:37.966Z,-1.66
2024-01-19T07:38:05.122Z,-1.75
2024-01-19T07:40:31.762Z,-1.51
2024-01-19T07:42:58.383Z,-1.41
2024-01-19T07:45:24.963Z,-1.42
2024-01-19T07:47:51.635Z,-1.33
2024-01-19T07:50:18.447Z,-1.26
2024-01-19T07:52:45.138Z,-1.16
2024-01-19T07:55:11.673Z,-1.00
2024-01-19T07:57:38.359Z,-0.95
2024-01-19T08:00:05.621Z,-0.87
2024-01-19T08:02:33.601Z,-0.89
2024-01-19T08:05:00.238Z,-1.03
2024-01-19T08:07:27.618Z,-0.77
2024-01-19T08:09:54.254Z,-0.80
2024-01-19T08:12:20.982Z,-0.81
2024-01-19T08:14:47.994Z,-0.72
2024-01-19T08:17:14.649Z,-0.57
2024-01-19T08:19:41.266Z,-0.58
2024-01-19T08:22:08.438Z,-0.43
2024-01-19T08:24:38.705Z,-0.51
2024-01-19T08:27:05.950Z,-0.54
2024-01-19T08:29:34.808Z,-0.64
2024-01-19T08:32:01.405Z,-0.45
2024-01-19T08:34:29.056Z,-0.27
2024-01-19T08:36:55.703Z,-0.45
2024-01-19T08:39:22.575Z,-0.28
2024-01-19T08:41:49.308Z,-0.10
2024-01-19T08:44:16.512Z,-0.07
2024-01-19T08:46:47.033Z,-0.10
2024-01-19T08:49:13.971Z,-0.01
2024-01-19T08:51:40.755Z,0.20
2024-01-19T08:54:07.826Z,0.29
2024-01-19T08:56:38.869Z,0.33
2024-01-19T08:59:10.045Z,0.42
2024-01-19T09:01:36.989Z,0.54
2024-01-19T09:04:04.356Z,0.69
2024-01-19T09:06:32.020Z,0.61
2024-01-19T09:09:02.492Z,0.69
2024-01-19T09:11:29.280Z,0.77
2024-01-19T09:13:56.008Z,0.68
2024-01-19T09:16:22.606Z,0.83
2024-01-19T09:18:49.424Z,0.87
2024-01-19T09:21:20.541Z,1.12
2024-01-19T09:23:47.323Z,1.32
2024-01-19T09:26:21.190Z,1.29
2024-01-19T09:28:48.691Z,1.38
2024-01-19T09:31:16.249Z,1.56
2024-01-19T09:33:43.875Z,1.68
2024-01-19T09:36:10.856Z,1.61
2024-01-19T09:38:38.564Z,1.58
2024-01-19T09:41:37.750Z,1.76
2024-01-19T09:44:11.807Z,1.81
2024-01-19T09:46:53.601Z,1.90
2024-01-19T09:49:44.803Z,1.82
2024-01-19T09:52:50.813Z,1.90
2024-01-19T09:55:18.174Z,2.05
2024-01-19T09:57:47.167Z,1.96
2024-01-19T10:00:15.656Z,1.73
2024-01-19T10:02:46.884Z,1.99
2024-01-19T10:05:15.127Z,2.10
2024-01-19T10:07:56.417Z,2.05
2024-01-19T10:10:23.190Z,2.01
2024-01-19T10:12:49.805Z,2.07
2024-01-19T10:15:18.640Z,2.18
2024-01-19T10:17:46.602Z,2.26
2024-01-19T10:20:17.396Z,2.77
2024-01-19T10:22:44.318Z,3.41
2024-01-19T10:25:12.899Z,4.57
2024-01-19T10:27:55.094Z,6.27
2024-01-19T10:30:29.694Z,7.91
2024-01-19T10:33:08.433Z,8.95
2024-01-19T10:35:38.994Z,9.76
2024-01-19T10:38:08.520Z,10.25
2024-01-19T10:40:35.822Z,10.89
2024-01-19T10:43:04.303Z,10.81
2024-01-19T10:45:32.881Z,10.84
2024-01-19T10:48:01.918Z,11.58
2024-01-19T10:50:29.707Z,12.25
2024-01-19T10:52:58.309Z,12.33
2024-01-19T10:55:27.357Z,12.36
2024-01-19T10:57:57.423Z,12.41
2024-01-19T11:00:29.135Z,12.41
2024-01-19T11:02:58.230Z,12.84
2024-01-19T11:05:26.421Z,12.71
2024-01-19T11:08:01.551Z,12.65
2024-01-19T11:10:31.129Z,12.91
2024-01-19T11:13:03.226Z,12.88
2024-01-19T11:15:42.060Z,12.83
2024-01-19T11:18:08.936Z,12.87
2024-01-19T11:20:36.156Z,12.84
2024-01-19T11:23:04.162Z,12.50
2024-01-19T11:25:54.202Z,12.60
2024-01-19T11:28:30.740Z,12.23
2024-01-19T11:31:13.019Z,12.36
2024-01-19T11:33:39.969Z,12.71
2024-01-19T11:36:07.118Z,12.95
2024-01-19T11:38:39.656Z,12.58
2024-01-19T11:41:06.574Z,12.31
2024-01-19T11:43:43.144Z,12.00
2024-01-19T11:46:12.898Z,12.15
2024-01-19T11:48:43.978Z,12.14
2024-01-19T11:51:36.711Z,12.50
2024-01-19T11:54:05.419Z,12.39
2024-01-19T11:56:32.637Z,12.33
2024-01-19T11:58:59.866Z,12.15
2024-01-19T12:01:26.647Z,11.99
2024-01-19T12:03:54.758Z,11.48
2024-01-19T12:06:24.898Z,11.32
2024-01-19T12:09:10.485Z,11.10
2024-01-19T12:11:37.478Z,11.38
2024-01-19T12:14:06.286Z,11.16
2024-01-19T12:16:33.777Z,10.57
2024-01-19T12:19:00.903Z,10.05
2024-01-19T12:21:28.804Z,8.86
2024-01-19T12:23:59.091Z,8.03
2024-01-19T12:26:25.881Z,7.28
2024-01-19T12:28:53.534Z,6.91
2024-01-19T12:31:38.878Z,6.53
2024-01-19T12:34:13.524Z,6.48
2024-01-19T12:36:40.701Z,6.16
2024-01-19T12:39:12.135Z,5.92
2024-01-19T12:41:42.963Z,5.65
2024-01-19T12:44:09.689Z,5.71
2024-01-19T12:46:36.412Z,5.59
2024-01-19T12:49:04.402Z,5.73
2024-01-19T12:51:31.896Z,5.49
2024-01-19T12:53:58.937Z,5.30
2024-01-19T12:56:30.313Z,5.14
2024-01-19T12:59:11.661Z,5.30
2024-01-19T13:01:42.438Z,5.76
2024-01-19T13:04:09.348Z,6.20
2024-01-19T13:06:42.965Z,6.63
2024-01-19T13:09:10.891Z,7.22
2024-01-19T13:11:37.554Z,7.53
2024-01-19T13:14:05.097Z,7.71
2024-01-19T13:16:33.330Z,8.00
2024-01-19T13:19:04.302Z,8.27
2024-01-19T13:21:31.723Z,8.21
2024-01-19T13:23:58.776Z,8.55
2024-01-19T13:26:25.893Z,8.69
2024-01-19T13:28:52.766Z,8.71
2024-01-19T13:31:19.768Z,8.56
2024-01-19T13:33:47.474Z,8.51
2024-01-19T13:36:16.648Z,8.48
2024-01-19T13:38:44.679Z,8.20
2024-01-19T13:41:12.683Z,7.84
2024-01-19T13:43:45.766Z,7.69
2024-01-19T13:46:15.121Z,7.36
2024-01-19T13:48:43.252Z,7.01
2024-01-19T13:51:10.466Z,6.89
2024-01-19T13:53:37.181Z,6.71
2024-01-19T13:56:04.623Z,6.60
2024-01-19T13:58:31.323Z,6.31
2024-01-19T14:00:58.254Z,6.12
2024-01-19T14:03:25.154Z,5.93
2024-01-19T14:05:52.028Z,5.93
2024-01-19T14:08:20.721Z,5.70
2024-01-19T14:10:50.180Z,5.40
2024-01-19T14:13:18.137Z,5.28
2024-01-19T14:15:52.130Z,5.21
2024-01-19T14:18:19.692Z,4.98
2024-01-19T14:20:47.709Z,5.12
2024-01-19T14:23:14.736Z,5.04
2024-01-19T14:25:41.528Z,5.03
2024-01-19T14:28:10.426Z,4.95
2024-01-19T14:30:37.267Z,4.83
2024-01-19T14:33:04.367Z,4.68
2024-01-19T14:35:31.097Z,4.46
2024-01-19T14:37:58.334Z,4.35
2024-01-19T14:40:25.009Z,4.31
2024-01-19T14:42:54.595Z,4.16
2024-01-19T14:45:23.621Z,3.95
2024-01-19T14:47:50.407Z,3.92
2024-01-19T14:50:17.461Z,4.04
2024-01-19T14:52:46.083Z,4.21
2024-01-19T14:55:14.361Z,4.18
2024-01-19T14:57:40.992Z,4.08
2024-01-19T15:00:09.385Z,3.83
2024-01-19T15:02:37.436Z,3.68
2024-01-19T15:05:05.321Z,3.81
2024-01-19T15:07:33.446Z,3.62
2024-01-19T15:10:00.308Z,3.63
2024-01-19T15:12:27.058Z,3.54
2024-01-19T15:14:54.428Z,3.46
2024-01-19T15:17:21.380Z,3.36
2024-01-19T15:19:53.504Z,3.11
2024-01-19T15:22:21.124Z,3.13
2024-01-19T15:24:48.871Z,3.04
2024-01-19T15:27:15.512Z,3.06
2024-01-19T15:29:42.540Z,2.75
2024-01-19T15:32:09.310Z,2.72
2024-01-19T15:34:35.990Z,2.54
2024-01-19T15:37:02.662Z,2.59
2024-01-19T15:39:29.259Z,2.46
2024-01-19T15:41:57.218Z,2.35
2024-01-19T15:44:25.367Z,2.28
2024-01-19T15:46:52.008Z,2.17
2024-01-19T15:49:18.787Z,1.91
2024-01-19T15:51:45.378Z,1.98
2024-01-19T15:54:11.984Z,1.86
2024-01-19T15:56:38.978Z,1.76
2024-01-19T15:59:08.155Z,1.69
2024-01-19T16:01:39.661Z,1.53
2024-01-19T16:04:06.955Z,1.44
2024-01-19T16:06:33.510Z,1.33
2024-01-19T16:09:00.161Z,1.23
2024-01-19T16:11:26.716Z,1.02
2024-01-19T16:13:53.306Z,1.04
2024-01-19T16:16:20.032Z,1.02
2024-01-19T16:18:46.714Z,0.89
2024-01-19T16:21:21.021Z,0.64
2024-01-19T16:23:47.891Z,0.62
2024-01-19T16:26:19.008Z,0.66
2024-01-19T16:28:46.896Z,0.56
2024-01-19T16:31:14.582Z,0.54
2024-01-19T16:33:41.145Z,0.42
2024-01-19T16:36:08.429Z,0.37
2024-01-19T16:38:35.016Z,0.33
2024-01-19T16:41:01.737Z,0.10
2024-01-19T16:43:28.643Z,0.23
2024-01-19T16:45:55.538Z,0.14
2024-01-19T16:48:23.733Z,0.20
2024-01-19T16:50:51.379Z,-0.01
2024-01-19T16:53:18.014Z,-0.03
2024-01-19T16:55:44.834Z,0.12
2024-01-19T16:58:11.696Z,0.08
2024-01-19T17:00:38.433Z,-0.15
2024-01-19T17:03:05.348Z,-0.01
2024-01-19T17:05:32.012Z,-0.24
2024-01-19T17:07:58.720Z,-0.16
2024-01-19T17:10:25.301Z,-0.10
2024-01-19T17:12:51.878Z,-0.18
2024-01-19T17:15:18.501Z,-0.24
2024-01-19T17:17:46.107Z,-0.32
2024-01-19T17:20:12.896Z,-0.36
2024-01-19T17:22:39.820Z,-0.34
2024-01-19T17:25:06.817Z,-0.41
2024-01-19T17:27:33.410Z,-0.44
2024-01-19T17:30:00.053Z,-0.45
2024-01-19T17:32:27.130Z,-0.61
2024-01-19T17:34:53.965Z,-0.45
2024-01-19T17:37:20.744Z,-0.48
2024-01-19T17:39:47.494Z,-0.46
2024-01-19T17:42:14.190Z,-0.67
2024-01-19T17:44:41.325Z,-0.51
2024-01-19T17:47:07.893Z,-0.54
2024-01-19T17:49:34.542Z,-0.67
2024-01-19T17:52:01.130Z,-0.63
2024-01-19T17:54:31.922Z,-0.77
2024-01-19T17:56:58.643Z,-0.74
2024-01-19T17:59:25.939Z,-0.80
2024-01-19T18:01:52.685Z,-0.84
2024-01-19T18:04:20.843Z,-0.75
2024-01-19T18:06:47.731Z,-0.92
2024-01-19T18:09:16.421Z,-0.71
2024-01-19T18:11:45.610Z,-0.76
2024-01-19T18:14:12.721Z,-0.70
2024-01-19T18:16:39.922Z,-0.71
2024-01-19T18:19:06.761Z,-0.75
2024-01-19T18:21:35.220Z,-0.68
2024-01-19T18:24:03.582Z,-0.82
2024-01-19T18:26:30.274Z,-0.95
2024-01-19T18:28:57.035Z,-0.86
2024-01-19T18:31:24.326Z,-0.81
2024-01-19T18:33:51.246Z,-0.82
2024-01-19T18:36:19.991Z,-0.81
2024-01-19T18:38:46.594Z,-0.80
2024-01-19T18:41:13.271Z,-0.77
2024-01-19T18:43:39.947Z,-0.75
2024-01-19T18:46:06.547Z,-0.75
2024-01-19T18:48:37.686Z,-0.72
2024-01-19T18:51:05.258Z,-0.95
2024-01-19T18:53:33.590Z,-0.88
2024-01-19T18:56:00.566Z,-0.82
2024-01-19T18:58:30.099Z,-0.91
2024-01-19T19:00:57.390Z,-0.89
2024-01-19T19:03:24.047Z,-0.82
2024-01-19T19:05:51.126Z,-0.88
2024-01-19T19:08:19.671Z,-0.98
2024-01-19T19:10:49.363Z,-1.01
2024-01-19T19:13:16.290Z,-0.96
2024-01-19T19:15:43.258Z,-0.94
2024-01-19T19:18:11.409Z,-0.92
2024-01-19T19:20:38.520Z,-0.91
2024-01-19T19:23:05.294Z,-0.89
2024-01-19T19:25:31.895Z,-1.10
2024-01-19T19:27:58.611Z,-1.12
2024-01-19T19:30:26.247Z,-1.09
2024-01-19T19:32:54.285Z,-0.93
2024-01-19T19:35:21.319Z,-0.96
2024-01-19T19:37:48.070Z,-1.00
2024-01-19T19:40:14.825Z,-1.05
2024-01-19T19:42:41.418Z,-1.01
2024-01-19T19:45:09.369Z,-1.32
2024-01-19T19:47:36.060Z,-1.07
2024-01-19T19:50:03.901Z,-1.04
2024-01-19T19:52:30.475Z,-1.07
2024-01-19T19:54:57.627Z,-1.14
2024-01-19T19:57:24.193Z,-1.09
2024-01-19T19:59:50.827Z,-1.19
2024-01-19T20:02:17.510Z,-1.08
2024-01-19T20:04:44.198Z,-1.16
2024-01-19T20:07:10.983Z,-1.22
2024-01-19T20:09:37.724Z,-1.12
2024-01-19T20:12:04.872Z,-1.34
2024-01-19T20:14:34.337Z,-1.24
2024-01-19T20:17:01.506Z,-1.20
2024-01-19T20:19:28.138Z,-1.20
2024-01-19T20:21:54.914Z,-1.30
2024-01-19T20:24:21.484Z,-1.15
2024-01-19T20:26:48.696Z,-1.14
2024-01-19T20:29:15.436Z,-1.22
2024-01-19T20:31:42.134Z,-1.09
2024-01-19T20:34:08.787Z,-1.21
2024-01-19T20:36:35.750Z,-1.20
2024-01-19T20:39:02.680Z,-1.12
2024-01-19T20:41:30.192Z,-1.10
2024-01-19T20:43:56.840Z,-1.15
2024-01-19T20:46:23.473Z,-1.13
2024-01-19T20:48:50.070Z,-1.10
2024-01-19T20:51:16.657Z,-1.17
2024-01-19T20:53:44.434Z,-1.34
2024-01-19T20:56:11.136Z,-1.18
2024-01-19T20:58:37.967Z,-1.26
2024-01-19T21:01:04.668Z,-1.26
2024-01-19T21:03:32.313Z,-1.27
2024-01-19T21:05:59.353Z,-1.31
2024-01-19T21:08:28.117Z,-1.26
2024-01-19T21:10:55.355Z,-1.45
2024-01-19T21:13:26.105Z,-1.33
2024-01-19T21:15:52.718Z,-1.39
2024-01-19T21:18:19.712Z,-1.37
2024-01-19T21:20:46.736Z,-1.44
2024-01-19T21:23:13.683Z,-1.46
2024-01-19T21:25:40.894Z,-1.50
2024-01-19T21:28:07.675Z,-1.54
2024-01-19T21:30:34.723Z,-1.55
2024-01-19T21:33:01.373Z,-1.64
2024-01-19T21:35:28.158Z,-1.53
2024-01-19T21:37:54.938Z,-1.49
2024-01-19T21:40:22.059Z,-1.55
2024-01-19T21:42:48.879Z,-1.49
2024-01-19T21:45:16.242Z,-1.47
2024-01-19T21:47:43.901Z,-1.51
2024-01-19T21:50:11.649Z,-1.49
2024-01-19T21:52:38.633Z,-1.51
2024-01-19T21:55:07.678Z,-1.58
2024-01-19T21:57:35.121Z,-1.67
2024-01-19T22:00:02.601Z,-1.59
2024-01-19T22:02:41.405Z,-1.62
2024-01-19T22:05:09.787Z,-1.66
2024-01-19T22:07:36.918Z,-1.68
2024-01-19T22:10:03.895Z,-1.68
2024-01-19T22:12:30.469Z,-1.77
2024-01-19T22:14:57.070Z,-1.77
2024-01-19T22:17:23.824Z,-1.73
2024-01-19T22:19:50.715Z,-1.81
2024-01-19T22:22:17.489Z,-1.77
2024-01-19T22:24:44.065Z,-1.81
2024-01-19T22:27:10.789Z,-1.78
2024-01-19T22:29:41.064Z,-1.82
2024-01-19T22:32:07.894Z,-1.84
2024-01-19T22:34:34.854Z,-1.82
2024-01-19T22:37:01.946Z,-1.83
2024-01-19T22:39:29.091Z,-1.81
2024-01-19T22:41:55.880Z,-1.80
2024-01-19T22:44:22.558Z,-1.81
2024-01-19T22:46:49.362Z,-1.73
2024-01-19T22:49:16.180Z,-1.90
2024-01-19T22:51:42.980Z,-1.67
2024-01-19T22:54:09.890Z,-1.61
2024-01-19T22:56:36.699Z,-1.62
2024-01-19T22:59:04.651Z,-1.65
2024-01-19T23:01:31.699Z,-1.57
2024-01-19T23:03:58.589Z,-1.44
2024-01-19T23:06:26.229Z,-1.38
2024-01-19T23:08:53.044Z,-1.36
2024-01-19T23:11:19.776Z,-1.25
2024-01-19T23:13:46.819Z,-1.24
2024-01-19T23:16:13.587Z,-1.26
2024-01-19T23:18:41.231Z,-1.05
2024-01-19T23:21:10.428Z,-1.08
2024-01-19T23:23:38.763Z,-0.96
2024-01-19T23:26:05.919Z,-0.96
2024-01-19T23:28:32.550Z,-0.78
2024-01-19T23:30:59.521Z,-0.77
2024-01-19T23:33:26.504Z,-0.72
2024-01-19T23:35:53.709Z,-0.70
2024-01-19T23:38:20.520Z,-0.65
2024-01-19T23:40:47.625Z,-0.58
2024-01-19T23:43:14.328Z,-0.62
2024-01-19T23:45:41.029Z,-0.55
2024-01-19T23:48:07.994Z,-0.54
2024-01-19T23:50:37.920Z,-0.47
2024-01-19T23:53:04.520Z,-0.62
2024-01-19T23:55:31.183Z,-0.45
2024-01-19T23:57:57.783Z,-0.41
